sensor_id;sensor_type;location;lat;lon;timestamp;temperature;humidity
40368;DHT22;26075;43.320;21.920;2022-12-29T00:06:14;12.10;72.60
40368;DHT22;26075;43.320;21.920;2022-12-29T00:11:20;12.00;58.10
40368;DHT22;26075;43.320;21.920;2022-12-29T00:16:21;11.70;71.90
40368;DHT22;26075;43.320;21.920;2022-12-29T00:21:56;11.80;72.00
40368;DHT22;26075;43.320;21.920;2022-12-29T01:30:18;11.60;72.50
40368;DHT22;26075;43.320;21.920;2022-12-29T02:01:20;11.40;58.90
40368;DHT22;26075;43.320;21.920;2022-12-29T02:06:24;11.40;59.10
40368;DHT22;26075;43.320;21.920;2022-12-29T02:11:27;11.60;73.70
40368;DHT22;26075;43.320;21.920;2022-12-29T02:39:09;10.90;73.90
40368;DHT22;26075;43.320;21.920;2022-12-29T03:33:00;11.40;73.60
40368;DHT22;26075;43.320;21.920;2022-12-29T04:49:20;11.00;73.80
40368;DHT22;26075;43.320;21.920;2022-12-29T05:15:06;11.20;73.90
40368;DHT22;26075;43.320;21.920;2022-12-29T05:25:09;10.90;73.40
40368;DHT22;26075;43.320;21.920;2022-12-29T05:30:12;11.20;74.00
40368;DHT22;26075;43.320;21.920;2022-12-29T05:45:15;11.30;73.60
40368;DHT22;26075;43.320;21.920;2022-12-29T05:55:17;10.70;73.60
40368;DHT22;26075;43.320;21.920;2022-12-29T06:00:28;10.70;74.10
40368;DHT22;26075;43.320;21.920;2022-12-29T06:15:32;10.90;59.70
40368;DHT22;26075;43.320;21.920;2022-12-29T06:31:31;11.10;73.60
40368;DHT22;26075;43.320;21.920;2022-12-29T06:46:49;11.30;74.90
40368;DHT22;26075;43.320;21.920;2022-12-29T06:56:52;11.70;73.90
40368;DHT22;26075;43.320;21.920;2022-12-29T07:02:02;11.70;74.00
40368;DHT22;26075;43.320;21.920;2022-12-29T08:22:19;11.90;72.90
40368;DHT22;26075;43.320;21.920;2022-12-29T08:27:20;11.90;72.70
40368;DHT22;26075;43.320;21.920;2022-12-29T09:02:29;12.20;72.40
40368;DHT22;26075;43.320;21.920;2022-12-29T09:17:31;12.50;72.20
40368;DHT22;26075;43.320;21.920;2022-12-29T09:22:43;12.60;58.40
40368;DHT22;26075;43.320;21.920;2022-12-29T09:32:46;12.70;59.30
40368;DHT22;26075;43.320;21.920;2022-12-29T09:37:50;13.10;71.70
40368;DHT22;26075;43.320;21.920;2022-12-29T09:48:07;13.10;57.90
40368;DHT22;26075;43.320;21.920;2022-12-29T09:58:24;13.20;57.90
40368;DHT22;26075;43.320;21.920;2022-12-29T10:09:02;13.20;57.60
40368;DHT22;26075;43.320;21.920;2022-12-29T10:24:53;13.50;57.40
40368;DHT22;26075;43.320;21.920;2022-12-29T10:29:57;13.40;57.50
40368;DHT22;26075;43.320;21.920;2022-12-29T10:35:03;13.50;70.80
40368;DHT22;26075;43.320;21.920;2022-12-29T10:40:32;13.70;57.50
40368;DHT22;26075;43.320;21.920;2022-12-29T10:56:02;13.80;62.60
40368;DHT22;26075;43.320;21.920;2022-12-29T11:01:11;13.90;70.90
40368;DHT22;26075;43.320;21.920;2022-12-29T11:06:26;13.80;58.20
40368;DHT22;26075;43.320;21.920;2022-12-29T11:11:33;13.90;57.70
40368;DHT22;26075;43.320;21.920;2022-12-29T11:21:38;13.90;57.60
40368;DHT22;26075;43.320;21.920;2022-12-29T11:26:43;13.90;58.10
40368;DHT22;26075;43.320;21.920;2022-12-29T11:31:55;14.10;70.50
40368;DHT22;26075;43.320;21.920;2022-12-29T11:37:40;14.20;70.70
40368;DHT22;26075;43.320;21.920;2022-12-29T11:42:46;14.20;57.30
40368;DHT22;26075;43.320;21.920;2022-12-29T11:53:53;14.10;57.60
40368;DHT22;26075;43.320;21.920;2022-12-29T11:59:24;14.20;57.60
40368;DHT22;26075;43.320;21.920;2022-12-29T12:04:34;14.20;70.70
40368;DHT22;26075;43.320;21.920;2022-12-29T12:09:45;14.40;57.80
40368;DHT22;26075;43.320;21.920;2022-12-29T12:15:03;14.40;57.60
40368;DHT22;26075;43.320;21.920;2022-12-29T12:25:41;14.40;68.60
40368;DHT22;26075;43.320;21.920;2022-12-29T12:30:47;14.50;57.90
40368;DHT22;26075;43.320;21.920;2022-12-29T12:46:59;14.80;70.70
40368;DHT22;26075;43.320;21.920;2022-12-29T12:57:55;14.90;70.70
40368;DHT22;26075;43.320;21.920;2022-12-29T13:03:10;14.60;69.70
40368;DHT22;26075;43.320;21.920;2022-12-29T13:24:49;15.10;62.50
40368;DHT22;26075;43.320;21.920;2022-12-29T13:40:40;15.20;66.90
40368;DHT22;26075;43.320;21.920;2022-12-29T13:45:42;15.10;57.30
40368;DHT22;26075;43.320;21.920;2022-12-29T13:50:58;15.30;70.30
40368;DHT22;26075;43.320;21.920;2022-12-29T13:56:14;15.00;69.90
40368;DHT22;26075;43.320;21.920;2022-12-29T14:01:46;15.60;70.30
40368;DHT22;26075;43.320;21.920;2022-12-29T14:07:13;15.20;69.30
40368;DHT22;26075;43.320;21.920;2022-12-29T14:18:19;15.20;57.40
40368;DHT22;26075;43.320;21.920;2022-12-29T14:28:44;14.90;70.10
40368;DHT22;26075;43.320;21.920;2022-12-29T14:39:33;15.40;70.60
40368;DHT22;26075;43.320;21.920;2022-12-29T14:44:50;15.10;70.30
40368;DHT22;26075;43.320;21.920;2022-12-29T14:49:52;15.30;70.40
40368;DHT22;26075;43.320;21.920;2022-12-29T15:00:29;15.20;70.40
40368;DHT22;26075;43.320;21.920;2022-12-29T15:06:15;15.10;57.90
40368;DHT22;26075;43.320;21.920;2022-12-29T15:17:24;15.30;70.80
40368;DHT22;26075;43.320;21.920;2022-12-29T15:22:33;15.10;57.50
40368;DHT22;26075;43.320;21.920;2022-12-29T15:32:43;15.10;57.70
40368;DHT22;26075;43.320;21.920;2022-12-29T15:48:24;15.20;70.40
40368;DHT22;26075;43.320;21.920;2022-12-29T15:53:31;15.10;70.70
40368;DHT22;26075;43.320;21.920;2022-12-29T15:58:43;15.00;57.70
40368;DHT22;26075;43.320;21.920;2022-12-29T16:09:18;14.90;70.30
40368;DHT22;26075;43.320;21.920;2022-12-29T16:14:41;14.90;71.30
40368;DHT22;26075;43.320;21.920;2022-12-29T16:19:58;15.50;59.30
40368;DHT22;26075;43.320;21.920;2022-12-29T16:25:03;16.10;57.90
40368;DHT22;26075;43.320;21.920;2022-12-29T16:30:26;15.90;57.80
40368;DHT22;26075;43.320;21.920;2022-12-29T16:35:29;15.70;58.20
40368;DHT22;26075;43.320;21.920;2022-12-29T16:46:29;15.50;72.10
40368;DHT22;26075;43.320;21.920;2022-12-29T16:51:34;15.20;71.90
40368;DHT22;26075;43.320;21.920;2022-12-29T17:07:47;19.00;64.40
40368;DHT22;26075;43.320;21.920;2022-12-29T17:18:44;14.80;70.80
40368;DHT22;26075;43.320;21.920;2022-12-29T17:50:43;14.80;58.90
40368;DHT22;26075;43.320;21.920;2022-12-29T18:00:48;14.70;58.90
40368;DHT22;26075;43.320;21.920;2022-12-29T19:03:50;14.40;73.20
40368;DHT22;26075;43.320;21.920;2022-12-29T20:00:38;14.00;60.00
40368;DHT22;26075;43.320;21.920;2022-12-29T20:15:42;14.00;60.20
40368;DHT22;26075;43.320;21.920;2022-12-29T20:30:56;13.90;60.30
40368;DHT22;26075;43.320;21.920;2022-12-29T20:36:25;14.00;60.30
40368;DHT22;26075;43.320;21.920;2022-12-29T21:03:16;13.90;74.30
40368;DHT22;26075;43.320;21.920;2022-12-29T22:00:39;13.70;74.70
40368;DHT22;26075;43.320;21.920;2022-12-29T23:46:21;13.60;61.30
